Time;durP1;ratioP1;P1;durP2;ratioP2;P2;SDS_P1;SDS_P2;PMS_P1;PMS_P2;Temp;Humidity;BMP_temperature;BMP_pressure;BME280_temperature;BME280_humidity;BME280_pressure;Samples;Min_cycle;Max_cycle;Signal;HPM_P1;HPM_P2
2021/06/10 00:00:14;;;;;;;7.58;5.07;;;;;;;17.22;72.83;98731.62;368904;107;1962011;-71
2021/06/10 00:01:19;;;;;;;7.64;5.24;;;;;;;17.22;72.53;98740.62;298304;107;2397017;-71
2021/06/10 00:02:26;;;;;;;11.06;5.12;;;;;;;17.14;72.76;98730.25;320021;108;2215040;-71
2021/06/10 00:03:38;;;;;;;7.72;4.59;;;;;;;17.30;72.73;98742.00;392654;104;1962052;-71
2021/06/10 00:04:43;;;;;;;7.12;4.68;;;;;;;17.14;72.94;98739.25;373936;107;1969003;-71
2021/06/10 00:05:57;;;;;;;8.72;5.33;;;;;;;17.21;73.22;98727.27;380495;106;1988070;-70
2021/06/10 00:07:03;;;;;;;7.62;4.89;;;;;;;17.09;73.33;98733.82;351297;108;1962112;-72
2021/06/10 00:08:16;;;;;;;11.49;5.23;;;;;;;17.23;73.17;98734.09;395542;103;1972064;-71
2021/06/10 00:09:22;;;;;;;6.43;4.37;;;;;;;17.07;73.25;98738.72;376634;107;1963995;-72
2021/06/10 00:10:36;;;;;;;8.00;4.96;;;;;;;17.18;73.37;98734.09;395675;104;1987026;-71
2021/06/10 00:11:41;;;;;;;7.99;4.33;;;;;;;17.09;73.19;98743.89;379955;105;1963869;-71
2021/06/10 00:13:05;;;;;;;7.93;4.82;;;;;;;17.05;73.54;98740.89;360366;107;1962077;-71
2021/06/10 00:14:18;;;;;;;7.79;4.95;;;;;;;17.15;73.48;98737.37;392111;104;1985831;-71
2021/06/10 00:15:26;;;;;;;8.43;4.90;;;;;;;17.05;73.47;98734.63;373699;107;1962028;-71
2021/06/10 00:16:32;;;;;;;7.68;4.67;;;;;;;17.04;73.55;98744.72;374943;107;1963863;-72
2021/06/10 00:17:38;;;;;;;7.14;4.59;;;;;;;17.08;73.26;98734.08;376369;106;1962004;-73
2021/06/10 00:18:52;;;;;;;9.34;5.19;;;;;;;17.18;73.41;98736.82;390009;103;2070983;-71
2021/06/10 00:19:59;;;;;;;8.69;5.28;;;;;;;17.05;73.48;98737.35;299042;105;2447989;-71
2021/06/10 00:21:05;;;;;;;9.26;4.54;;;;;;;17.05;73.32;98731.89;372204;107;1962053;-72
2021/06/10 00:22:19;;;;;;;7.36;4.49;;;;;;;17.12;73.43;98732.42;386137;106;1961918;-71
2021/06/10 00:23:24;;;;;;;7.41;4.86;;;;;;;16.97;73.81;98729.70;360280;108;1969063;-72
2021/06/10 00:24:36;;;;;;;9.18;4.88;;;;;;;17.06;73.93;98747.98;396037;104;1986882;-71
2021/06/10 00:25:42;;;;;;;5.81;3.96;;;;;;;16.94;73.82;98741.16;379958;105;1961889;-71
2021/06/10 00:27:06;;;;;;;7.92;4.82;;;;;;;16.95;73.73;98738.14;372837;105;1964088;-71
2021/06/10 00:28:18;;;;;;;8.85;5.08;;;;;;;16.92;74.05;98714.95;389099;104;2072941;-71
2021/06/10 00:29:24;;;;;;;6.63;4.42;;;;;;;16.95;73.88;98735.42;372559;107;1970020;-71
2021/06/10 00:30:36;;;;;;;6.73;4.49;;;;;;;17.05;74.12;98734.63;376271;104;2849985;-68
2021/06/10 00:31:42;;;;;;;16.08;4.58;;;;;;;16.96;73.95;98723.41;326885;107;2858900;-73
2021/06/10 00:32:49;;;;;;;8.02;4.69;;;;;;;16.91;74.09;98728.87;344686;107;1961965;-72
2021/06/10 00:34:03;;;;;;;10.07;5.05;;;;;;;17.06;73.92;98726.15;392591;103;1986065;-70
2021/06/10 00:35:09;;;;;;;6.63;4.42;;;;;;;16.98;73.91;98734.06;312740;107;2318967;-71
2021/06/10 00:36:15;;;;;;;7.59;4.39;;;;;;;16.96;73.88;98730.77;367550;109;1962052;-71
2021/06/10 00:37:28;;;;;;;9.50;5.41;;;;;;;17.07;74.07;98737.91;388587;104;2071919;-72
2021/06/10 00:38:34;;;;;;;9.04;4.68;;;;;;;16.96;73.93;98730.77;371222;107;1963049;-72
2021/06/10 00:39:46;;;;;;;8.22;5.37;;;;;;;16.98;74.43;98725.88;387791;104;2072912;-72
2021/06/10 00:40:52;;;;;;;8.77;5.01;;;;;;;16.88;74.46;98732.12;372075;107;1969840;-72
2021/06/10 00:42:15;;;;;;;8.39;4.56;;;;;;;16.85;74.44;98735.39;371865;105;1964106;-72
2021/06/10 00:43:20;;;;;;;6.64;4.09;;;;;;;16.86;74.45;98724.23;361735;107;2934010;-71
2021/06/10 00:44:26;;;;;;;8.88;5.01;;;;;;;16.90;74.25;98728.04;370335;107;1962061;-71
2021/06/10 00:45:38;;;;;;;8.86;4.93;;;;;;;17.00;74.39;98724.52;387895;104;2072064;-69
2021/06/10 00:46:44;;;;;;;8.34;4.46;;;;;;;16.91;74.37;98731.61;378905;105;1969789;-72
2021/06/10 00:47:56;;;;;;;7.08;4.39;;;;;;;17.00;74.51;98715.52;393962;104;1986882;-72
2021/06/10 00:49:04;;;;;;;10.13;4.81;;;;;;;16.89;74.39;98729.14;376897;105;1961872;-71
2021/06/10 00:50:35;;;;;;;7.01;4.49;;;;;;;16.89;74.29;98726.41;367588;106;2921019;-71
2021/06/10 00:51:54;;;;;;;9.09;4.72;;;;;;;17.05;74.12;98712.80;395099;101;2859063;-72
2021/06/10 00:53:01;;;;;;;7.86;4.76;;;;;;;16.95;74.13;98719.05;331696;105;2860949;-72
2021/06/10 00:54:13;;;;;;;7.08;4.67;;;;;;;17.04;74.30;98719.33;392224;104;1986977;-71
2021/06/10 00:55:18;;;;;;;7.49;4.76;;;;;;;16.94;74.08;98720.16;374462;107;1962094;-71
2021/06/10 00:56:43;;;;;;;9.56;4.89;;;;;;;16.98;73.95;98714.96;375192;107;1961910;-72
2021/06/10 00:57:48;;;;;;;7.58;4.30;;;;;;;16.97;74.16;98718.80;371961;107;1962099;-71
2021/06/10 00:59:01;;;;;;;10.75;5.08;;;;;;;17.05;74.07;98716.34;397079;104;1985992;-71
2021/06/10 01:00:09;;;;;;;7.72;4.71;;;;;;;16.96;74.01;98717.13;382865;105;1961989;-71
2021/06/10 01:01:15;;;;;;;8.68;4.46;;;;;;;16.96;74.01;98719.86;378708;105;1961983;-71
2021/06/10 01:02:21;;;;;;;7.82;4.48;;;;;;;16.95;73.98;98713.59;376518;105;1961960;-71
2021/06/10 01:03:26;;;;;;;6.96;4.86;;;;;;;16.96;74.02;98719.86;374684;107;1962008;-72
2021/06/10 01:04:39;;;;;;;8.02;5.04;;;;;;;17.05;74.28;98715.52;381028;106;2072023;-70
2021/06/10 01:05:51;;;;;;;8.18;4.74;;;;;;;16.96;74.09;98714.41;365790;109;1969998;-71
2021/06/10 01:07:06;;;;;;;8.69;4.82;;;;;;;17.02;74.38;98714.16;385611;106;1986084;-72
2021/06/10 01:08:38;;;;;;;7.24;4.62;;;;;;;16.91;74.34;98707.88;360691;110;1961974;-72
2021/06/10 01:10:01;;;;;;;7.51;4.43;;;;;;;16.99;74.49;98709.25;392108;104;1986043;-72
2021/06/10 01:11:33;;;;;;;9.48;5.16;;;;;;;16.89;74.22;98709.23;361559;105;1965893;-72
2021/06/10 01:12:49;;;;;;;8.38;5.49;;;;;;;16.99;74.41;98706.52;397156;103;1986913;-70
2021/06/10 01:14:14;;;;;;;7.11;4.82;;;;;;;17.03;74.31;98710.33;402268;101;1986998;-71
2021/06/10 01:15:23;;;;;;;8.26;4.62;;;;;;;16.91;74.42;98712.52;316720;103;2351041;-71
2021/06/10 01:16:40;;;;;;;8.06;4.83;;;;;;;16.99;74.56;98711.13;394628;104;1985832;-72
2021/06/10 01:17:47;;;;;;;12.86;5.22;;;;;;;16.84;74.63;98709.22;352448;106;1961929;-72
2021/06/10 01:19:20;;;;;;;7.77;4.51;;;;;;;16.82;74.77;98709.48;335911;106;2107040;-73
2021/06/10 01:20:33;;;;;;;9.58;5.52;;;;;;;16.91;74.92;98709.78;393142;104;1985852;-72
2021/06/10 01:21:42;;;;;;;9.25;4.97;;;;;;;16.80;74.64;98705.37;373142;107;1962305;-72
2021/06/10 01:22:57;;;;;;;7.47;4.67;;;;;;;16.79;74.72;98710.02;361648;107;1962039;-72
2021/06/10 01:24:06;;;;;;;8.29;4.97;;;;;;;16.75;75.00;98710.80;304720;107;2410865;-71
2021/06/10 01:25:40;;;;;;;10.19;5.22;;;;;;;16.86;74.93;98713.31;383097;104;1986071;-72
2021/06/10 01:26:59;;;;;;;9.11;5.08;;;;;;;16.71;75.16;98710.52;380719;105;1961882;-69
2021/06/10 01:28:15;;;;;;;9.08;5.21;;;;;;;16.84;75.16;98712.77;397691;104;1985976;-71
2021/06/10 01:29:23;;;;;;;10.01;4.97;;;;;;;16.75;74.93;98713.52;378998;105;1961894;-71
2021/06/10 01:30:53;;;;;;;8.97;5.74;;;;;;;16.71;75.23;98715.98;379889;105;1965035;-71
2021/06/10 01:32:06;;;;;;;8.09;5.80;;;;;;;16.80;75.44;98708.92;350960;104;2820974;-72
2021/06/10 01:33:16;;;;;;;8.62;5.37;;;;;;;16.69;75.33;98715.42;375093;105;1961999;-71
2021/06/10 01:34:29;;;;;;;12.24;5.69;;;;;;;16.81;75.28;98704.31;394867;103;1985955;-71
2021/06/10 01:35:38;;;;;;;9.29;5.40;;;;;;;16.66;75.51;98707.78;374369;107;1963944;-72
2021/06/10 01:37:03;;;;;;;8.33;5.62;;;;;;;16.66;75.48;98700.41;372616;107;1960963;-72
2021/06/10 01:38:10;;;;;;;8.99;5.63;;;;;;;16.61;75.68;98711.31;366900;109;1962072;-71
2021/06/10 01:39:19;;;;;;;10.73;5.65;;;;;;;16.66;75.46;98705.05;366369;108;1962000;-72
2021/06/10 01:40:32;;;;;;;8.39;5.17;;;;;;;16.77;75.39;98714.08;388913;106;1985955;-70
2021/06/10 01:41:39;;;;;;;8.63;5.77;;;;;;;16.69;75.26;98708.05;358548;110;1962012;-72
2021/06/10 01:42:52;;;;;;;8.11;5.61;;;;;;;16.79;75.41;98711.94;395332;103;1984803;-70
2021/06/10 01:44:00;;;;;;;8.83;5.20;;;;;;;16.66;75.37;98718.69;374199;106;1962072;-72
2021/06/10 01:45:11;;;;;;;7.61;5.43;;;;;;;16.65;75.62;98715.15;332497;107;2705969;-72
2021/06/10 01:46:26;;;;;;;11.54;6.16;;;;;;;16.78;75.57;98721.22;398492;103;1987010;-71
2021/06/10 01:47:32;;;;;;;9.82;5.42;;;;;;;16.68;75.61;98713.80;327654;105;2191919;-71
2021/06/10 01:48:47;;;;;;;9.05;6.04;;;;;;;16.78;75.65;98716.58;390532;104;2071867;-72
2021/06/10 01:49:55;;;;;;;10.05;5.90;;;;;;;16.70;75.39;98715.16;339241;107;2672046;-72
2021/06/10 01:51:03;;;;;;;8.12;5.32;;;;;;;16.73;75.22;98713.80;374743;107;1961919;-72
2021/06/10 01:52:10;;;;;;;8.39;5.36;;;;;;;16.73;75.27;98721.98;337351;107;2062979;-70
2021/06/10 01:53:24;;;;;;;10.27;5.78;;;;;;;16.81;75.38;98717.95;386399;106;1988059;-69
2021/06/10 01:54:30;;;;;;;7.89;5.76;;;;;;;16.67;75.44;98723.05;295500;109;2422981;-71
2021/06/10 01:55:37;;;;;;;7.71;5.51;;;;;;;16.65;75.64;98726.06;367846;107;1962016;-71
2021/06/10 01:56:45;;;;;;;10.46;5.83;;;;;;;16.65;75.56;98722.52;368827;107;1960670;-71
2021/06/10 01:57:59;;;;;;;9.39;6.54;;;;;;;16.79;75.38;98720.13;397468;104;1985911;-70
2021/06/10 01:59:06;;;;;;;9.92;5.91;;;;;;;16.63;75.61;98722.77;379651;105;1963926;-69
2021/06/10 02:00:14;;;;;;;7.69;5.22;;;;;;;16.62;75.53;98726.59;344796;105;2062010;-70
2021/06/10 02:01:29;;;;;;;7.03;4.73;;;;;;;16.75;75.58;98718.98;351800;106;2649045;-71
2021/06/10 02:02:36;;;;;;;8.94;5.88;;;;;;;16.65;75.56;98720.60;358960;111;1961885;-70
2021/06/10 02:03:52;;;;;;;10.65;5.74;;;;;;;16.77;75.59;98725.83;373847;109;1995084;-71
2021/06/10 02:04:57;;;;;;;9.03;5.64;;;;;;;16.62;75.71;98725.78;359951;111;1961843;-71
2021/06/10 02:06:24;;;;;;;9.02;5.09;;;;;;;16.65;75.53;98727.97;359338;111;1962058;-70
2021/06/10 02:07:30;;;;;;;8.78;5.70;;;;;;;16.60;75.82;98725.23;288611;113;2467023;-70
2021/06/10 02:08:45;;;;;;;8.53;5.67;;;;;;;16.74;75.79;98723.61;393226;104;1961934;-72
2021/06/10 02:09:51;;;;;;;10.08;6.06;;;;;;;16.66;75.63;98715.97;329627;107;2169061;-71
2021/06/10 02:10:58;;;;;;;8.29;6.19;;;;;;;16.62;75.95;98725.78;374271;107;1965893;-71
2021/06/10 02:12:12;;;;;;;9.20;5.87;;;;;;;16.75;75.74;98728.00;377984;108;1986956;-71
2021/06/10 02:13:19;;;;;;;9.71;5.77;;;;;;;16.67;75.65;98733.95;357368;110;1961966;-70
2021/06/10 02:14:51;;;;;;;9.43;5.85;;;;;;;16.73;75.54;98711.08;395202;103;2073095;-71
2021/06/10 02:16:00;;;;;;;12.22;6.13;;;;;;;16.72;75.32;98736.70;337020;105;2865014;-71
2021/06/10 02:17:24;;;;;;;13.96;6.11;;;;;;;16.71;75.37;98727.70;378148;105;1961954;-70
2021/06/10 02:18:40;;;;;;;8.98;6.09;;;;;;;16.81;75.56;98718.77;392312;104;2072042;-71
2021/06/10 02:19:45;;;;;;;9.98;5.71;;;;;;;16.72;75.43;98723.06;376476;106;1962029;-72
2021/06/10 02:21:06;;;;;;;10.00;6.10;;;;;;;16.82;75.55;98722.30;396281;104;1985990;-71
2021/06/10 02:22:13;;;;;;;8.72;5.47;;;;;;;16.75;75.28;98732.61;379031;105;1962064;-71
2021/06/10 02:23:38;;;;;;;10.33;5.90;;;;;;;16.76;75.24;98724.17;376980;106;1963872;-71
2021/06/10 02:25:10;;;;;;;8.64;5.37;;;;;;;16.86;75.38;98728.87;398374;103;1972922;-71
2021/06/10 02:26:17;;;;;;;13.47;6.19;;;;;;;16.73;75.44;98727.44;377335;105;1961982;-71
2021/06/10 02:27:29;;;;;;;8.97;6.25;;;;;;;16.84;75.50;98725.59;385476;104;2072045;-72
2021/06/10 02:28:36;;;;;;;8.23;5.97;;;;;;;16.76;75.36;98718.72;371407;109;1962021;-71
2021/06/10 02:29:59;;;;;;;9.63;6.42;;;;;;;16.79;75.23;98725.58;368788;107;1962050;-71
2021/06/10 02:31:08;;;;;;;8.09;5.48;;;;;;;16.77;75.32;98734.02;369838;107;1962080;-71
2021/06/10 02:32:20;;;;;;;8.36;5.59;;;;;;;16.85;75.58;98733.48;396161;104;1985975;-71
2021/06/10 02:33:26;;;;;;;7.65;5.43;;;;;;;16.75;75.37;98733.45;368884;109;1964075;-72
2021/06/10 02:34:39;;;;;;;7.97;5.55;;;;;;;16.84;75.57;98734.58;391085;103;2078984;-71
2021/06/10 02:35:47;;;;;;;9.81;5.69;;;;;;;16.76;75.52;98739.72;335338;107;2878022;-71
2021/06/10 02:37:12;;;;;;;8.96;5.68;;;;;;;16.80;75.33;98736.20;319549;105;2256086;-71
2021/06/10 02:38:28;;;;;;;11.38;5.90;;;;;;;16.89;75.41;98728.33;396689;104;1985887;-71
2021/06/10 02:39:44;;;;;;;10.66;5.70;;;;;;;16.80;75.25;98736.20;379664;105;1963062;-71
2021/06/10 02:40:59;;;;;;;8.72;5.41;;;;;;;16.95;75.13;98731.88;384630;104;2906070;-71
2021/06/10 02:42:13;;;;;;;8.67;5.72;;;;;;;17.00;75.01;98731.89;401793;100;1988314;-73
2021/06/10 02:43:38;;;;;;;9.79;6.66;;;;;;;16.89;74.96;98742.78;350744;113;1962040;-74
2021/06/10 02:44:53;;;;;;;8.31;5.93;;;;;;;17.03;74.84;98732.16;394773;104;1987059;-72
2021/06/10 02:46:00;;;;;;;8.29;5.48;;;;;;;16.90;74.90;98733.49;368404;106;2886007;-74
2021/06/10 02:47:27;;;;;;;8.77;5.54;;;;;;;16.91;74.81;98732.42;340715;105;2890018;-71
2021/06/10 02:48:41;;;;;;;8.78;6.14;;;;;;;16.84;75.07;98728.31;378376;104;2837046;-72
2021/06/10 02:49:49;;;;;;;11.93;5.62;;;;;;;16.84;75.07;98728.31;374615;107;1962023;-71
2021/06/10 02:51:01;;;;;;;9.41;6.12;;;;;;;16.96;75.15;98723.41;353069;104;2179972;-72
2021/06/10 02:52:08;;;;;;;8.37;5.39;;;;;;;16.90;74.83;98728.04;361061;106;1964003;-72
2021/06/10 02:53:33;;;;;;;8.49;5.41;;;;;;;16.85;75.08;98728.03;334871;107;2882024;-72
2021/06/10 02:55:05;;;;;;;7.85;5.60;;;;;;;16.96;75.17;98719.86;379235;108;2071937;-73
2021/06/10 02:56:14;;;;;;;9.68;6.39;;;;;;;16.90;74.93;98733.49;364268;110;1964039;-72
2021/06/10 02:57:21;;;;;;;8.89;6.23;;;;;;;16.87;75.06;98722.31;363569;110;1963018;-72
2021/06/10 02:58:36;;;;;;;11.64;6.50;;;;;;;16.96;75.21;98722.59;339959;101;2449927;-73
2021/06/10 02:59:44;;;;;;;9.53;6.34;;;;;;;16.82;75.35;98730.48;384569;104;1962012;-71
2021/06/10 03:00:57;;;;;;;10.23;6.27;;;;;;;17.01;74.94;98728.05;390426;106;1985946;-72
2021/06/10 03:02:04;;;;;;;9.18;5.70;;;;;;;16.88;75.06;98730.23;368884;107;1961973;-72
2021/06/10 03:03:28;;;;;;;9.05;6.34;;;;;;;16.91;75.03;98723.42;364675;109;1961926;-73
2021/06/10 03:04:33;;;;;;;8.74;5.78;;;;;;;16.95;74.81;98732.69;363571;108;1965011;-72
2021/06/10 03:05:48;;;;;;;9.96;6.63;;;;;;;17.07;74.79;98722.34;393226;104;1986025;-72
2021/06/10 03:06:55;;;;;;;10.48;7.03;;;;;;;16.99;74.62;98736.53;374769;107;1962090;-70
2021/06/10 03:08:14;;;;;;;7.96;5.72;;;;;;;17.13;74.44;98725.90;326811;104;2430915;-71
2021/06/10 03:09:47;;;;;;;9.88;6.47;;;;;;;17.09;74.60;98719.33;397946;103;1986010;-72
2021/06/10 03:10:56;;;;;;;9.03;6.38;;;;;;;17.02;74.50;98718.80;378784;105;1962013;-70
2021/06/10 03:12:12;;;;;;;8.52;6.25;;;;;;;17.16;74.43;98722.63;329222;106;2269049;-72
2021/06/10 03:13:20;;;;;;;10.52;6.31;;;;;;;17.11;74.10;98722.61;359702;109;1963043;-72
2021/06/10 03:14:45;;;;;;;9.38;6.66;;;;;;;17.08;74.25;98723.16;359578;110;1962057;-72
2021/06/10 03:15:58;;;;;;;9.93;6.14;;;;;;;17.19;74.27;98721.26;395192;104;1986023;-71
2021/06/10 03:17:04;;;;;;;9.04;6.32;;;;;;;17.09;74.13;98720.17;372542;107;1963068;-71
2021/06/10 03:18:12;;;;;;;8.58;6.22;;;;;;;17.12;73.88;98721.52;370557;107;1962040;-72
2021/06/10 03:19:18;;;;;;;10.09;6.39;;;;;;;17.09;74.15;98725.63;369917;107;1961996;-71
2021/06/10 03:20:31;;;;;;;11.22;7.29;;;;;;;17.18;74.18;98720.44;395043;103;2072062;-71
2021/06/10 03:21:37;;;;;;;9.96;6.59;;;;;;;17.11;74.14;98719.89;377538;107;1961868;-72
2021/06/10 03:22:50;;;;;;;10.41;7.38;;;;;;;17.16;74.39;98728.08;400531;101;2072995;-72
2021/06/10 03:23:55;;;;;;;8.59;6.33;;;;;;;17.07;74.36;98721.53;383410;105;1961911;-69
2021/06/10 03:25:21;;;;;;;10.59;6.53;;;;;;;17.01;74.49;98725.33;340010;104;2775006;-72
2021/06/10 03:26:55;;;;;;;11.94;6.66;;;;;;;17.09;74.70;98736.55;412992;99;1985829;-71
2021/06/10 03:28:03;;;;;;;8.22;6.16;;;;;;;17.04;74.58;98733.81;368602;101;1976998;-70
2021/06/10 03:29:08;;;;;;;9.86;6.58;;;;;;;17.09;74.48;98738.43;378189;105;1963044;-72
2021/06/10 03:30:22;;;;;;;10.28;7.32;;;;;;;17.26;74.18;98732.73;354562;104;2654948;-72
2021/06/10 03:31:29;;;;;;;10.34;6.81;;;;;;;17.17;74.19;98728.89;374472;107;1969981;-72
2021/06/10 03:32:43;;;;;;;9.91;6.28;;;;;;;17.32;74.07;98735.17;348581;104;2650915;-72
2021/06/10 03:33:50;;;;;;;9.78;6.77;;;;;;;17.23;73.95;98733.28;370151;107;1962070;-72
2021/06/10 03:35:15;;;;;;;10.41;6.70;;;;;;;17.28;73.79;98730.52;369349;109;1961954;-72
2021/06/10 03:36:30;;;;;;;11.00;6.91;;;;;;;17.41;73.78;98730.01;389536;104;2889058;-71
2021/06/10 03:37:36;;;;;;;12.17;7.46;;;;;;;17.35;73.57;98731.08;377702;105;1962881;-71
2021/06/10 03:38:51;;;;;;;10.73;6.27;;;;;;;17.51;73.48;98738.16;343247;106;2767045;-71
2021/06/10 03:39:57;;;;;;;9.36;7.05;;;;;;;17.47;73.26;98733.55;355909;111;1961926;-69
2021/06/10 03:41:21;;;;;;;12.63;7.23;;;;;;;17.48;73.00;98735.17;333234;107;2659034;-70
2021/06/10 03:42:35;;;;;;;9.81;6.79;;;;;;;17.64;72.87;98714.95;395491;103;1964851;-70
2021/06/10 03:43:42;;;;;;;10.16;6.65;;;;;;;17.52;73.04;98722.63;376133;105;1963013;-73
2021/06/10 03:44:54;;;;;;;9.82;6.98;;;;;;;17.65;72.78;98729.41;395839;104;1985960;-71
2021/06/10 03:46:02;;;;;;;9.93;7.28;;;;;;;17.59;72.64;98725.88;378975;105;1961899;-71
2021/06/10 03:47:08;;;;;;;9.56;7.04;;;;;;;17.66;72.43;98731.88;348050;107;1962066;-71
2021/06/10 03:48:20;;;;;;;9.25;6.79;;;;;;;17.83;72.30;98733.52;402061;101;1985966;-71
2021/06/10 03:49:33;;;;;;;11.21;7.39;;;;;;;17.88;72.03;98733.52;395706;103;1987054;-72
2021/06/10 03:50:57;;;;;;;10.15;7.16;;;;;;;17.82;71.88;98734.63;370809;107;1963099;-71
2021/06/10 03:52:09;;;;;;;10.93;7.35;;;;;;;17.94;71.82;98730.51;376381;106;2930054;-71
2021/06/10 03:53:15;;;;;;;9.79;7.55;;;;;;;17.89;71.79;98726.94;325500;109;2692091;-71
2021/06/10 03:54:40;;;;;;;9.78;7.19;;;;;;;17.94;71.20;98729.66;362347;111;1962944;-72
2021/06/10 03:55:52;;;;;;;13.44;6.90;;;;;;;18.07;71.12;98731.00;394427;104;1986999;-72
2021/06/10 03:56:58;;;;;;;10.83;7.25;;;;;;;17.98;71.18;98731.58;373374;106;1964031;-72
2021/06/10 03:58:10;;;;;;;10.32;7.54;;;;;;;18.20;70.94;98733.95;395480;103;1987038;-71
2021/06/10 03:59:15;;;;;;;10.27;6.81;;;;;;;18.12;70.84;98733.72;373017;107;1961982;-71
2021/06/10 04:00:39;;;;;;;11.00;6.50;;;;;;;18.12;70.23;98731.80;374187;107;1961981;-71
2021/06/10 04:01:51;;;;;;;10.17;7.11;;;;;;;18.26;70.38;98726.58;396075;104;1985812;-71
2021/06/10 04:02:59;;;;;;;11.59;7.38;;;;;;;18.13;70.44;98732.64;375848;106;1962038;-72
2021/06/10 04:04:11;;;;;;;10.01;7.48;;;;;;;18.26;70.50;98729.31;394477;104;1985974;-72
2021/06/10 04:05:16;;;;;;;9.44;6.64;;;;;;;18.17;70.63;98731.78;377160;106;1962038;-72
2021/06/10 04:06:32;;;;;;;10.66;6.61;;;;;;;18.32;70.29;98727.38;394450;103;1986919;-73
2021/06/10 04:07:36;;;;;;;9.65;7.08;;;;;;;18.24;69.90;98726.84;343478;106;2863939;-72
2021/06/10 04:08:42;;;;;;;11.01;7.61;;;;;;;18.29;69.90;98733.41;360900;105;1962068;-72
2021/06/10 04:10:01;;;;;;;11.58;7.44;;;;;;;18.39;69.91;98731.45;390634;104;2072094;-74
2021/06/10 04:11:08;;;;;;;11.98;8.42;;;;;;;18.28;69.85;98726.28;321754;110;2770050;-75
2021/06/10 04:12:20;;;;;;;14.03;8.61;;;;;;;18.31;69.94;98728.45;395075;104;1986079;-73
2021/06/10 04:13:27;;;;;;;10.94;9.03;;;;;;;18.07;70.25;98722.80;375055;107;1962010;-73
2021/06/10 04:14:42;;;;;;;15.09;10.09;;;;;;;18.17;70.30;98733.70;379781;106;2985953;-71
2021/06/10 04:15:47;;;;;;;13.85;8.33;;;;;;;18.03;70.33;98735.41;366166;109;1961991;-72
2021/06/10 04:17:10;;;;;;;11.96;7.72;;;;;;;17.96;70.60;98735.67;364092;110;1961911;-71
2021/06/10 04:19:30;;;;;;;9.81;6.95;;;;;;;17.99;71.25;98737.85;392719;104;1986072;-73
2021/06/10 04:20:37;;;;;;;10.21;7.16;;;;;;;17.93;71.10;98737.05;379275;105;1961916;-72
2021/06/10 04:21:42;;;;;;;11.07;7.36;;;;;;;17.99;71.11;98735.12;380416;105;1963075;-72
2021/06/10 04:22:48;;;;;;;14.07;8.07;;;;;;;18.08;71.09;98730.73;374853;107;1962070;-73
2021/06/10 04:24:01;;;;;;;10.97;6.89;;;;;;;18.33;70.72;98731.73;394251;104;1986872;-72
2021/06/10 04:25:09;;;;;;;12.44;6.39;;;;;;;18.27;70.59;98730.13;344867;105;2032885;-73
2021/06/10 04:26:21;;;;;;;9.39;7.03;;;;;;;18.48;69.58;98726.20;395723;101;2911000;-72
2021/06/10 04:27:26;;;;;;;9.59;6.72;;;;;;;18.43;69.74;98731.70;383726;105;1962029;-72
2021/06/10 04:28:32;;;;;;;12.06;7.77;;;;;;;18.54;69.25;98732.47;382939;105;1961982;-73
2021/06/10 04:29:46;;;;;;;13.41;7.97;;;;;;;18.71;68.93;98735.67;406548;101;1986015;-72
2021/06/10 04:30:52;;;;;;;11.04;7.59;;;;;;;18.60;68.82;98732.17;387234;103;1963048;-73
2021/06/10 04:31:58;;;;;;;15.21;7.66;;;;;;;18.62;68.77;98729.14;376634;105;2859980;-72
2021/06/10 04:33:10;;;;;;;10.31;7.88;;;;;;;18.70;68.64;98730.47;391792;104;1961997;-73
2021/06/10 04:34:16;;;;;;;11.62;8.42;;;;;;;18.56;68.93;98730.27;373917;105;1970051;-72
2021/06/10 04:35:28;;;;;;;13.12;8.52;;;;;;;18.59;69.06;98733.25;384215;104;2976980;-73
2021/06/10 04:36:34;;;;;;;11.64;8.41;;;;;;;18.46;69.43;98725.66;334080;107;2671001;-73
2021/06/10 04:37:59;;;;;;;12.82;8.21;;;;;;;18.44;69.30;98739.63;370198;109;1962075;-74
2021/06/10 04:39:05;;;;;;;12.62;8.78;;;;;;;18.47;69.41;98732.78;325875;108;2884053;-73
2021/06/10 04:40:18;;;;;;;12.77;9.09;;;;;;;18.57;69.43;98735.45;385525;102;1984748;-73
2021/06/10 04:41:23;;;;;;;13.22;9.21;;;;;;;18.45;69.36;98721.30;352620;112;1961950;-72
2021/06/10 04:42:35;;;;;;;11.52;9.01;;;;;;;18.53;69.51;98728.11;332055;104;2276005;-74
2021/06/10 04:43:41;;;;;;;12.83;9.73;;;;;;;18.41;69.43;98731.96;339804;104;1961595;-72
2021/06/10 04:45:06;;;;;;;12.33;9.22;;;;;;;18.40;69.46;98737.73;364014;108;1962026;-73
2021/06/10 04:46:12;;;;;;;14.49;9.58;;;;;;;18.33;69.69;98732.55;366200;108;1962054;-72
2021/06/10 04:47:25;;;;;;;17.11;10.72;;;;;;;18.35;70.13;98735.02;379557;106;2071982;-73
2021/06/10 04:48:32;;;;;;;13.04;9.49;;;;;;;18.19;70.41;98735.06;361788;111;1962043;-73
2021/06/10 04:49:44;;;;;;;11.98;8.39;;;;;;;18.35;70.07;98729.55;396772;103;1986895;-72
2021/06/10 04:50:53;;;;;;;11.67;7.81;;;;;;;18.26;70.14;98733.94;375336;107;1964035;-73
2021/06/10 04:52:06;;;;;;;10.73;7.24;;;;;;;18.43;70.36;98731.70;390398;106;1986086;-73
2021/06/10 04:53:13;;;;;;;11.72;6.94;;;;;;;18.42;70.16;98727.34;365551;109;1965022;-72
2021/06/10 04:54:37;;;;;;;11.84;7.01;;;;;;;18.56;69.88;98728.34;364660;108;1960811;-73
2021/06/10 04:55:50;;;;;;;12.11;7.46;;;;;;;18.83;69.01;98736.16;327829;104;2376083;-72
2021/06/10 04:57:04;;;;;;;10.24;6.31;;;;;;;18.93;68.73;98731.73;395079;104;1964908;-73
2021/06/10 04:58:27;;;;;;;11.53;6.88;;;;;;;18.84;68.16;98732.34;370164;107;1960887;-74
2021/06/10 04:59:32;;;;;;;9.21;6.72;;;;;;;18.93;68.63;98729.00;370375;107;1960678;-73
2021/06/10 05:00:45;;;;;;;15.42;7.14;;;;;;;19.15;67.63;98734.04;345286;106;2737816;-73
2021/06/10 05:01:52;;;;;;;11.16;6.94;;;;;;;19.12;67.58;98732.69;364958;110;1961997;-72
2021/06/10 05:03:06;;;;;;;10.93;7.37;;;;;;;19.24;67.12;98732.34;394658;104;1985981;-73
2021/06/10 05:04:18;;;;;;;11.91;7.69;;;;;;;19.27;67.06;98738.05;395763;101;1985773;-72
2021/06/10 05:05:24;;;;;;;9.81;8.17;;;;;;;19.15;67.24;98739.52;378312;105;1960767;-72
2021/06/10 05:06:36;;;;;;;13.53;8.91;;;;;;;19.29;67.40;98735.02;356603;101;2108002;-72
2021/06/10 05:07:42;;;;;;;13.86;8.39;;;;;;;19.16;67.63;98744.72;343423;104;1988925;-71
2021/06/10 05:08:47;;;;;;;12.12;8.78;;;;;;;19.20;67.30;98743.03;365359;106;1962041;-72
2021/06/10 05:09:52;;;;;;;11.79;9.17;;;;;;;19.22;66.94;98746.31;358162;105;1963764;-71
2021/06/10 05:10:58;;;;;;;19.42;8.86;;;;;;;19.20;66.98;98742.22;362311;105;1962048;-70
2021/06/10 05:12:10;;;;;;;12.40;9.43;;;;;;;19.30;67.00;98737.48;388575;105;2076730;-73
2021/06/10 05:13:17;;;;;;;12.45;8.94;;;;;;;19.17;66.92;98738.13;366156;108;1960806;-73
2021/06/10 05:14:30;;;;;;;12.67;9.53;;;;;;;19.22;66.91;98740.83;391074;106;1964980;-73
2021/06/10 05:15:35;;;;;;;16.23;9.26;;;;;;;19.08;67.03;98740.66;371217;107;1960649;-73
2021/06/10 05:16:41;;;;;;;13.76;9.58;;;;;;;19.07;67.07;98732.72;368798;109;1960911;-73
2021/06/10 05:17:47;;;;;;;18.15;9.33;;;;;;;19.07;67.48;98741.75;363836;108;1960783;-74
2021/06/10 05:19:00;;;;;;;13.64;9.18;;;;;;;19.22;67.31;98734.55;394030;103;1960899;-73
2021/06/10 05:20:07;;;;;;;21.27;9.94;;;;;;;19.16;66.96;98732.93;376292;106;1969063;-73
2021/06/10 05:21:19;;;;;;;16.18;8.86;;;;;;;19.30;66.92;98736.67;365006;106;2396061;-73
2021/06/10 05:22:25;;;;;;;17.41;9.38;;;;;;;19.18;67.20;98745.23;343895;108;1960923;-74
2021/06/10 05:23:48;;;;;;;14.53;8.41;;;;;;;19.27;66.95;98737.25;363628;110;1961134;-72
2021/06/10 05:25:00;;;;;;;13.30;9.07;;;;;;;19.46;66.71;98740.10;387405;106;1984909;-73
2021/06/10 05:26:07;;;;;;;12.12;8.18;;;;;;;19.41;66.62;98743.69;368999;109;1960946;-73
2021/06/10 05:27:12;;;;;;;12.22;7.17;;;;;;;19.54;66.43;98743.03;366212;109;1962031;-72
2021/06/10 05:28:29;;;;;;;13.73;8.03;;;;;;;19.76;65.14;98744.50;346062;104;2845852;-73
2021/06/10 05:29:32;;;;;;;13.62;7.09;;;;;;;19.70;65.47;98740.19;378368;107;1960772;-74
2021/06/10 05:30:46;;;;;;;14.51;7.77;;;;;;;19.89;65.15;98735.60;381902;103;1984766;-74